Race Coverage Navigation

TS # 19 / La Veta, CO  2019

 


TS STATS
TS Distance 58.31 
Total Distance 1135.59 
Miles To Go 1934.69 
TS Climbing 1086 
Total Climbing
TS  Elevation
TS  Net Elevation 1713 
Map Filename Open Map 
Directions Filename  
Latitude 37.51 
Longitude -105.01 
Google Map  TimeStation Map 


TS Arrival Data
Arr Ord  #/Name Arrival DT TS Dst Avg This TS Avg Overall Ascending
 1 161 - Seana Hogan  06/16/2019 19:34 58.31  15.98  9.2 
 2 605 - Christian Echavarria  06/16/2019 18:39 58.31  8.86  9.29 
 3 607 - Sabine Bird (Team Bean)  06/16/2019 15:32 58.31  11.29  9.5 
 4 618 - GREGORY ROBINSON  06/16/2019 13:31 58.31  11.86  9.68 
 5 527 - TALABARDON (Herve Talabardon)  06/16/2019 10:10 58.31  12.58  9.99 
 6 608 - Elin Starup  06/16/2019 9:27 58.31  9.18  10.01 
 7 424 - Team i RON man Veterans supporting Veterans  06/16/2019 8:46 58.31  6.82  10.12 
 8 539 - Kari Rouvinen  06/16/2019 4:08 58.31  6.98  10.55 
 9 399 - Valerio Zamboni  06/16/2019 3:34 58.31  11.04  10.61 
 10 510 - John C. Tarlton  06/15/2019 23:42 58.31  12.54  11 
 11 611 - Marcelo Soares " MIXIRICA "  06/15/2019 22:31 58.31  9.21  11.11 
 12 610 - Kabir Rachure  06/15/2019 22:21 58.31  10.11  11.13 
 13 411 - Geoff Brunner  06/15/2019 19:57 58.31  11.18  11.42 
 14 559 - Team Martin RAAM 2019 (Martin Bergmeister)  06/15/2019 19:21 58.31  11.21  11.48 
 15 367 - Daniela Genovesi  06/15/2019 15:45 58.31  12.11  11.87 
 16 604 - Chieko Ozawa  06/15/2019 15:17 58.31  19.01  11.92 
 17 568 - Alexandra Meixner  06/15/2019 14:54 58.31  12.91  11.97 
 18 615 - Philipp Amhof  06/15/2019 15:04 58.31  8.66  11.98 
 19 442 - Joe Barr  06/15/2019 13:41 58.31  9.61  12.19 
 20 603 - Alan Bradley  06/15/2019 13:07 58.31  13.94  12.25 
 21 603 - Alan Bradley  06/16/2019 8:27 58.31  13.94  12.25 
 22 623 - Ultra Paka Racing Team (Daniel Polman)  06/15/2019 11:27 58.31  15.34  12.44 
 23 416 - Leah Goldstein  06/15/2019 11:20 58.31  12.77  12.45 
 24 622 - Thomas Odom-Team Kyle Pease Foundation  06/15/2019 9:46 58.31  10.97  12.67 
 25 329 - Peter Oyler  06/15/2019 8:02 58.31  13.3  12.99 
 26 T205 - Prevent Breast Cancer powered by Endomag  06/19/2019 5:48 58.31  13.3  13.1 
 27 T210 - Bike Wine Team  06/19/2019 5:06 58.31  14.4  13.21 
 28 612 - Markus K. Brandl  06/15/2019 5:56 58.31  9.11  13.26 
 29 349 - Mark Pattinson  06/15/2019 4:27 58.31  7.44  13.54 
 30 T203 - JPsDuo  06/19/2019 0:43 58.31  16.2  13.91 
 31 529 - Isa Pulver  06/15/2019 0:31 58.31  13.51  14.12 
 32 617 - SOLO.kiwi (Craig Harper)  06/15/2019 0:20 58.31  13.83  14.18 
 33 T409 - Serpentine Golden Girls  06/18/2019 22:26 58.31  17.49  14.35 
 34 609 - Jakob Olsen  06/14/2019 21:55 58.31  22.28  14.64 
 35 288 - Dave Haase  06/14/2019 21:47 58.31  18.81  14.72 
 36 T207 - Team Life Time  06/18/2019 19:50 58.31  18.91  14.8 
 37 T200 - AIR RELAX GoPro TEAM BRASIL  06/18/2019 19:19 58.31  21.87  14.88 
 38 T208 - Team Machine  06/18/2019 19:12 58.31  15.02  14.93 
 39 T417 - Team4RAAM 2019 powered by TGW Living Logistics  06/18/2019 18:22 58.31  16.74  15.16 
 40 279 - Marko Baloh  06/14/2019 19:11 58.31  16.43  15.23 
 41 T801 - Mind Over Matter  06/18/2019 16:30 58.31  18.71  15.56 
 42 T806 - Team SuperMarrow  06/18/2019 15:41 58.31  19.12  15.75 
 43 T402 - EA/WFP RAAM Team  06/18/2019 15:01 58.31  17.49  15.81 
 44 T413 - TEAM BRASIL - SKIPPER  06/18/2019 14:28 58.31  17.23  15.98 
 45 T204 - Lucan CRC  06/18/2019 12:37 58.31  17.58  16.33 
 46 T405 - High Rollers  06/18/2019 12:02 58.31  13.1  16.51 
 47 T415 - TEAM FIRE VELO 935  06/18/2019 12:01 58.31  17.85  16.55 
 48 T206 - Project Linear Acceleration  06/18/2019 11:24 58.31  17.85  16.63 
 49 T803 - Team EndoPark  06/18/2019 10:25 58.31  16.66  16.98 
 50 T410 - Soap-Aid  06/18/2019 9:58 58.31  15.15  17.04 
 51 T403 - EKJ Denmark  06/18/2019 9:43 58.31  16.43  17.08 
 52 T202 - Integra Medical - BAA Racing  06/18/2019 9:28 58.31  17.41  17.09 
 53 T414 - Brazil Nuts  06/18/2019 9:25 58.31  18.51  17.2 
 54 377 - Christoph Strasser  06/14/2019 8:38 58.31  15.41  17.75 
 55 T418 - The Opportunists  06/18/2019 7:15 58.31  17.32  17.8 
 56 T406 - Operation Walk Midwest  06/18/2019 5:13 58.31  18.41  18.33 
 57 T400 - Cantastic4  06/18/2019 5:06 58.31  18.03  18.34 
 58 T808 - Antonia's Friends 2019  06/18/2019 5:12 58.31  17.67  18.44 
 59 T408 - Radeln-fuer-Kinder (Cycling-for-Kids)  06/18/2019 4:28 58.31  19.12  18.57 
 60 T804 - Team FSHD Skyland Trail  06/18/2019 4:40 58.31  19.99  18.58 
 61 T416 - Team Rotary Raams Polio  06/18/2019 3:56 58.31  18.81  18.77 
 62 T802 - Scorchers  06/18/2019 3:26 58.31  21.73  18.95 
 63 T412 - Team Aspect  06/18/2019 2:56 58.31  18.41  19.06 
 64 T807 - Team ZOE International  06/18/2019 2:20 58.31  17.85  19.33 
 65 T407 - Julian Becker   06/18/2019 1:50 58.31  18.71  19.4 
 66 T805 - Team Oceanside  06/18/2019 1:10 58.31  23.96  19.72 
 67 T201 - EAT WELL  06/18/2019 0:20 58.31  17.85  19.81 
 68 T404 - Gentlemen of speed  06/17/2019 21:35 58.31  20.34  20.89 
 69 T401 - Data Techniques powered by Networks Centre  06/17/2019 20:48 58.31  19.44  21.18 
 70 T800 - Backstedt Racing Project 14  06/17/2019 18:55 58.31  23.96  22.08 
 71 T411 - team alpha - tischlerei groemmer  06/17/2019 18:26 58.31  23.02  22.23